Startpagina
METAR-TAF:

METAR-TAF

Vliegvelden :

Santa Maria, Rio Grande do Sul, Brazilië

breedte: 29-43S, lengte: 053-42W, hoogte: 85 m

Actueel weer

Dit bericht is 2 uur en het 0 minuten geleden gemaakt, om 22:00 UTC
Wind 6 kt uit het oosten
Temperatuur 23°C
Vochtigheid 61%
Druk 1013 hPa
Zicht 10 km of meer
geen wolken onder 1500 m en geen cumulonimbus

METAR: SBSM 232200Z 10006KT CAVOK 23/15 Q1013

Tijdstip: 21:00 (00:00 UTC)

Verwachting

Dit bericht is 8 uur en het 0 minuten geleden gemaakt, om 16:00 UTC
Verwachting geldig van 23 om 18 UTC tot 24 om 06 UTC
Wind 8 kt uit het oostzuidoosten
Zicht 10 km of meer
Weinig wolken op 3500 ft
Wijzigt naar
van 23 om 21 UTC tot 23 om 23 UTC
Wind 4 kt uit het oosten
Zicht 10 km of meer
geen wolken onder 1500 m en geen cumulonimbus

TAF: SBSM 231600Z 2318/2406 11008KT 9999 FEW035 TX28/2318Z TN16/2406Z BECMG 2321/2323 10004KT CAVOK RMK PDJ

Waarnemingen en weersverwachtingen van meer dan 4000 vliegvelden (METAR en TAF).

De beschikbare stations zijn de gele en rode punten op de kaart.

Ga met uw muis naar het station om de naam te zien.

Klik dan om waarnemingen en weersverwachtingen te zien.

kaart wijzigen: klik op de groene knoppen met een zwart kruis om in te zoomen, op de groene knop met een streepje om uit te zoomen of op de groene pijlen voor aangrenzende kaarten.


METAR-TAF: